Snow/Ice From: 16-12-2017 16:00 Until: 17-12-2017 16:00 warning for: Snow/Ice Level: Yellow info button

Although rather usual in this region, locally or potentially dangerous phenomena are expected. (such as local winds, summer thunderstorms, rising streams or high waves) Be aware and pay attention to the latest weather updates, especially if you carry out activities exposed to weather or close to a stream or shoreline. 


Meteo18 Weather Cam more information Meteo18 Weather Cam


Thunder radar more information blitzortung!


warning for Snow/Ice more information rain snow radar


Visit our other weather sites:

Template documentation
and downloads

And another site



Weather Underground History page Text

Daily Summary for August 27, 2016 Units:  Metric    English   Both
« Previous Day
Next Day »
Daily Weekly Monthly Yearly Custom
  High: Low: Average:
Temperature: 35.6 °C 17.2 °C 26.6 °C
Dew Point: 14.8 °C 10.3 °C 12.9 °C
Humidity: 76 % 24 % 47 %
Wind Speed: 14.5 km/h 0.0 km/h 2.5 km/h
Wind Gust: 19.3 km/h - -
Wind:- - SW
Pressure: 1017.2 hPa 1013.8 hPa -
Precipitation: 0.0 mm    
Historical Graphs
 
 
Tabular Data for August 27, 2016
Time Temperature Dew Point Pressure Wind Wind Speed Wind Gust Humidity Rainfall Rate (Hourly)
00:02 23.3 °C 13.5 °C 1015.5 hPa Calm     54 % 0.0 mm
00:12 22.9 °C 13.4 °C 1015.5 hPa Calm     55 % 0.0 mm
00:17 22.7 °C 13.2 °C 1015.5 hPa Calm     55 % 0.0 mm
00:22 22.6 °C 13.6 °C 1015.5 hPa Calm     57 % 0.0 mm
00:32 22.7 °C 13.5 °C 1015.5 hPa Calm     56 % 0.0 mm
00:37 22.6 °C 13.4 °C 1015.5 hPa Calm     56 % 0.0 mm
00:42 22.4 °C 13.2 °C 1015.5 hPa Calm     56 % 0.0 mm
00:47 22.6 °C 13.4 °C 1015.5 hPa Calm     56 % 0.0 mm
00:57 22.1 °C 13.2 °C 1015.8 hPa Calm     57 % 0.0 mm
01:02 21.9 °C 13.0 °C 1015.8 hPa Calm     57 % 0.0 mm
01:12 21.5 °C 13.4 °C 1015.8 hPa Calm     60 % 0.0 mm
01:17 21.4 °C 13.6 °C 1016.1 hPa Calm     61 % 0.0 mm
01:22 21.1 °C 12.5 °C 1016.1 hPa Calm     58 % 0.0 mm
01:27 20.7 °C 12.4 °C 1016.1 hPa East 3.2 km/h 4.8 km/h 59 % 0.0 mm
01:32 20.4 °C 12.6 °C 1016.1 hPa Calm   4.8 km/h 61 % 0.0 mm
01:47 20.5 °C 13.0 °C 1015.8 hPa Calm   3.2 km/h 62 % 0.0 mm
01:52 20.7 °C 12.9 °C 1015.8 hPa Calm     61 % 0.0 mm
01:57 20.8 °C 13.0 °C 1015.8 hPa Calm     61 % 0.0 mm
02:02 20.4 °C 12.6 °C 1015.8 hPa WNW 1.6 km/h   61 % 0.0 mm
02:07 20.3 °C 13.3 °C 1015.8 hPa NW 3.2 km/h 4.8 km/h 64 % 0.0 mm
02:12 20.4 °C 13.4 °C 1015.8 hPa NW 3.2 km/h 4.8 km/h 64 % 0.0 mm
02:17 20.4 °C 13.4 °C 1015.8 hPa NW 3.2 km/h 4.8 km/h 64 % 0.0 mm
02:22 20.6 °C 13.3 °C 1015.8 hPa Calm   4.8 km/h 63 % 0.0 mm
02:32 20.5 °C 13.5 °C 1015.8 hPa Calm   4.8 km/h 64 % 0.0 mm
02:37 20.7 °C 13.4 °C 1015.8 hPa Calm   3.2 km/h 63 % 0.0 mm
02:42 20.6 °C 13.3 °C 1015.8 hPa Calm   3.2 km/h 63 % 0.0 mm
02:47 20.7 °C 13.4 °C 1015.8 hPa Calm   1.6 km/h 63 % 0.0 mm
02:52 20.5 °C 13.5 °C 1015.8 hPa Calm     64 % 0.0 mm
02:57 20.2 °C 13.2 °C 1015.8 hPa Calm     64 % 0.0 mm
03:02 19.9 °C 12.9 °C 1015.8 hPa Calm     64 % 0.0 mm
03:12 19.6 °C 13.1 °C 1015.8 hPa Calm     66 % 0.0 mm
03:17 19.5 °C 13.2 °C 1015.8 hPa Calm     67 % 0.0 mm
03:22 19.5 °C 13.2 °C 1015.8 hPa Calm     67 % 0.0 mm
03:32 19.4 °C 13.3 °C 1015.5 hPa Calm     68 % 0.0 mm
03:37 19.3 °C 13.0 °C 1015.8 hPa Calm     67 % 0.0 mm
03:42 19.2 °C 13.1 °C 1015.8 hPa Calm     68 % 0.0 mm
03:47 19.3 °C 13.2 °C 1015.5 hPa Calm     68 % 0.0 mm
03:52 19.3 °C 13.2 °C 1015.8 hPa Calm     68 % 0.0 mm
03:57 19.2 °C 13.6 °C 1015.5 hPa Calm     70 % 0.0 mm
04:07 19.2 °C 13.6 °C 1015.5 hPa Calm     70 % 0.0 mm
04:12 19.1 °C 13.3 °C 1015.5 hPa Calm     69 % 0.0 mm
04:17 18.9 °C 13.3 °C 1015.5 hPa Calm     70 % 0.0 mm
04:22 18.8 °C 13.4 °C 1015.5 hPa Calm     71 % 0.0 mm
04:27 19.0 °C 13.4 °C 1015.5 hPa Calm     70 % 0.0 mm
04:32 19.0 °C 13.6 °C 1015.5 hPa Calm     71 % 0.0 mm
04:37 18.8 °C 13.4 °C 1015.5 hPa Calm     71 % 0.0 mm
04:42 18.7 °C 13.3 °C 1015.5 hPa Calm     71 % 0.0 mm
04:47 18.6 °C 13.2 °C 1015.5 hPa Calm     71 % 0.0 mm
04:52 18.4 °C 13.0 °C 1015.5 hPa Calm     71 % 0.0 mm
05:02 18.4 °C 13.3 °C 1015.5 hPa Calm     72 % 0.0 mm
05:12 18.5 °C 13.1 °C 1015.5 hPa Calm     71 % 0.0 mm
05:17 18.4 °C 13.0 °C 1015.5 hPa Calm     71 % 0.0 mm
05:22 18.3 °C 13.2 °C 1015.5 hPa Calm     72 % 0.0 mm
05:32 18.2 °C 13.3 °C 1015.5 hPa Calm     73 % 0.0 mm
05:42 17.9 °C 13.0 °C 1015.5 hPa Calm     73 % 0.0 mm
05:47 17.8 °C 12.9 °C 1015.5 hPa Calm     73 % 0.0 mm
05:52 17.9 °C 13.0 °C 1015.5 hPa Calm     73 % 0.0 mm
05:57 17.9 °C 13.0 °C 1015.5 hPa Calm     73 % 0.0 mm
06:02 17.9 °C 13.2 °C 1015.5 hPa Calm     74 % 0.0 mm
06:12 17.9 °C 13.2 °C 1015.5 hPa Calm     74 % 0.0 mm
06:17 17.9 °C 13.2 °C 1015.5 hPa Calm     74 % 0.0 mm
06:22 17.8 °C 13.1 °C 1015.5 hPa Calm     74 % 0.0 mm
06:32 17.6 °C 12.9 °C 1015.8 hPa Calm     74 % 0.0 mm
06:37 17.4 °C 12.9 °C 1015.8 hPa Calm     75 % 0.0 mm
06:42 17.3 °C 12.6 °C 1015.8 hPa Calm     74 % 0.0 mm
06:52 17.2 °C 12.9 °C 1015.8 hPa Calm     76 % 0.0 mm
06:57 17.2 °C 12.9 °C 1015.8 hPa Calm     76 % 0.0 mm
07:07 17.3 °C 13.0 °C 1015.8 hPa Calm     76 % 0.0 mm
07:12 17.3 °C 12.8 °C 1016.1 hPa Calm     75 % 0.0 mm
07:17 17.4 °C 13.1 °C 1015.8 hPa Calm     76 % 0.0 mm
07:22 17.7 °C 13.2 °C 1016.1 hPa Calm     75 % 0.0 mm
07:32 18.3 °C 13.4 °C 1016.1 hPa Calm     73 % 0.0 mm
07:42 19.3 °C 13.5 °C 1016.1 hPa Calm     69 % 0.0 mm
07:52 19.2 °C 13.1 °C 1016.1 hPa Calm     68 % 0.0 mm
08:02 18.7 °C 12.9 °C 1016.1 hPa Calm     69 % 0.0 mm
08:12 18.8 °C 13.4 °C 1016.1 hPa Calm     71 % 0.0 mm
08:17 19.5 °C 13.7 °C 1016.1 hPa Calm     69 % 0.0 mm
08:22 20.1 °C 13.5 °C 1016.1 hPa Calm     66 % 0.0 mm
08:32 20.9 °C 14.1 °C 1016.1 hPa Calm     65 % 0.0 mm
08:37 21.3 °C 14.0 °C 1016.1 hPa Calm     63 % 0.0 mm
08:47 21.4 °C 13.3 °C 1016.1 hPa Calm     60 % 0.0 mm
08:52 21.6 °C 13.5 °C 1016.1 hPa Calm     60 % 0.0 mm
09:02 22.6 °C 13.6 °C 1016.5 hPa Calm     57 % 0.0 mm
09:12 23.0 °C 14.0 °C 1016.5 hPa Calm     57 % 0.0 mm
09:17 23.0 °C 13.5 °C 1016.5 hPa SW 1.6 km/h 8.0 km/h 55 % 0.0 mm
09:22 23.0 °C 13.7 °C 1016.5 hPa SW 6.4 km/h 8.0 km/h 56 % 0.0 mm
09:32 23.1 °C 13.3 °C 1016.8 hPa SSW 6.4 km/h 11.3 km/h 54 % 0.0 mm
09:37 23.4 °C 13.3 °C 1016.8 hPa SSE 4.8 km/h 11.3 km/h 53 % 0.0 mm
09:42 23.7 °C 13.3 °C 1016.8 hPa SSW 4.8 km/h 11.3 km/h 52 % 0.0 mm
09:57 24.5 °C 13.4 °C 1016.8 hPa South 4.8 km/h 12.9 km/h 50 % 0.0 mm
10:02 24.7 °C 13.6 °C 1016.8 hPa SW 11.3 km/h 12.9 km/h 50 % 0.0 mm
10:12 25.0 °C 13.5 °C 1016.8 hPa SW 9.7 km/h 14.5 km/h 49 % 0.0 mm
10:17 25.3 °C 13.8 °C 1017.2 hPa SW 14.5 km/h 14.5 km/h 49 % 0.0 mm
10:22 25.6 °C 14.1 °C 1017.2 hPa SW 3.2 km/h 14.5 km/h 49 % 0.0 mm
10:32 26.3 °C 14.4 °C 1017.2 hPa SW 4.8 km/h 16.1 km/h 48 % 0.0 mm
10:37 26.5 °C 14.3 °C 1017.2 hPa SW 6.4 km/h 12.9 km/h 47 % 0.0 mm
10:42 26.6 °C 14.7 °C 1017.2 hPa SW 3.2 km/h 12.9 km/h 48 % 0.0 mm
10:47 26.7 °C 14.5 °C 1017.2 hPa South 3.2 km/h 9.7 km/h 47 % 0.0 mm
10:52 26.7 °C 14.5 °C 1017.2 hPa South 3.2 km/h 9.7 km/h 47 % 0.0 mm
10:57 26.7 °C 14.5 °C 1017.2 hPa South 3.2 km/h 11.3 km/h 47 % 0.0 mm
11:02 26.7 °C 14.5 °C 1017.2 hPa South 4.8 km/h 11.3 km/h 47 % 0.0 mm
11:12 27.1 °C 14.5 °C 1017.2 hPa West 1.6 km/h 9.7 km/h 46 % 0.0 mm
11:17 27.2 °C 14.2 °C 1016.8 hPa SW 1.6 km/h 8.0 km/h 45 % 0.0 mm
11:22 27.4 °C 14.4 °C 1016.8 hPa SW 6.4 km/h 8.0 km/h 45 % 0.0 mm
11:32 27.9 °C 14.2 °C 1016.8 hPa West 6.4 km/h 9.7 km/h 43 % 0.0 mm
11:37 28.2 °C 14.4 °C 1016.8 hPa WSW 4.8 km/h 8.0 km/h 43 % 0.0 mm
11:42 28.6 °C 14.8 °C 1016.8 hPa WSW 3.2 km/h 8.0 km/h 43 % 0.0 mm
11:52 29.0 °C 14.8 °C 1016.8 hPa South 1.6 km/h 9.7 km/h 42 % 0.0 mm
12:02 29.9 °C 14.4 °C 1016.5 hPa SSW 4.8 km/h 12.9 km/h 39 % 0.0 mm
12:12 30.7 °C 13.9 °C 1016.5 hPa West 11.3 km/h 12.9 km/h 36 % 0.0 mm
12:17 30.8 °C 14.0 °C 1016.5 hPa West 8.0 km/h 16.1 km/h 36 % 0.0 mm
12:22 31.0 °C 13.7 °C 1016.5 hPa West 3.2 km/h 16.1 km/h 35 % 0.0 mm
12:32 31.2 °C 14.4 °C 1016.5 hPa West 4.8 km/h 17.7 km/h 36 % 0.0 mm
12:37 31.3 °C 14.0 °C 1016.1 hPa West 3.2 km/h 17.7 km/h 35 % 0.0 mm
12:42 31.5 °C 14.2 °C 1016.1 hPa SW 9.7 km/h 12.9 km/h 35 % 0.0 mm
12:47 31.8 °C 14.0 °C 1016.1 hPa WSW 3.2 km/h 12.9 km/h 34 % 0.0 mm
12:52 31.9 °C 14.1 °C 1016.1 hPa SSW 3.2 km/h 12.9 km/h 34 % 0.0 mm
12:57 32.1 °C 13.8 °C 1016.1 hPa WNW 4.8 km/h 16.1 km/h 33 % 0.0 mm
13:02 32.0 °C 14.2 °C 1016.1 hPa WSW 6.4 km/h 16.1 km/h 34 % 0.0 mm
13:12 32.3 °C 13.5 °C 1016.1 hPa West 8.0 km/h 16.1 km/h 32 % 0.0 mm
13:17 32.3 °C 14.0 °C 1016.1 hPa NW 6.4 km/h 12.9 km/h 33 % 0.0 mm
13:22 32.6 °C 14.7 °C 1015.8 hPa WNW 8.0 km/h 11.3 km/h 34 % 0.0 mm
13:32 32.8 °C 13.9 °C 1015.8 hPa East 3.2 km/h 14.5 km/h 32 % 0.0 mm
13:42 32.8 °C 13.9 °C 1015.8 hPa WNW 3.2 km/h 14.5 km/h 32 % 0.0 mm
13:52 32.2 °C 13.9 °C 1015.8 hPa Calm   11.3 km/h 33 % 0.0 mm
13:57 32.3 °C 13.5 °C 1015.8 hPa North 1.6 km/h 8.0 km/h 32 % 0.0 mm
14:02 32.3 °C 14.0 °C 1015.8 hPa SSW 3.2 km/h 8.0 km/h 33 % 0.0 mm
14:12 32.4 °C 13.6 °C 1015.8 hPa SSW 4.8 km/h 8.0 km/h 32 % 0.0 mm
14:17 32.4 °C 13.6 °C 1015.5 hPa Calm   6.4 km/h 32 % 0.0 mm
14:22 32.5 °C 13.7 °C 1015.5 hPa SSW 4.8 km/h 9.7 km/h 32 % 0.0 mm
14:27 32.4 °C 13.6 °C 1015.5 hPa WSW 4.8 km/h 9.7 km/h 32 % 0.0 mm
14:32 32.4 °C 13.6 °C 1015.5 hPa SSW 4.8 km/h 9.7 km/h 32 % 0.0 mm
14:42 33.0 °C 13.1 °C 1015.5 hPa Calm   9.7 km/h 30 % 0.0 mm
14:47 33.7 °C 13.7 °C 1015.5 hPa ENE 8.0 km/h 8.0 km/h 30 % 0.0 mm
14:52 33.4 °C 12.9 °C 1015.5 hPa East 1.6 km/h 8.0 km/h 29 % 0.0 mm
14:57 33.9 °C 13.9 °C 1015.5 hPa ESE 1.6 km/h 11.3 km/h 30 % 0.0 mm
15:02 34.1 °C 13.0 °C 1015.5 hPa SSW 14.5 km/h 14.5 km/h 28 % 0.0 mm
15:07 33.7 °C 13.2 °C 1015.5 hPa Calm   14.5 km/h 29 % 0.0 mm
15:12 34.0 °C 13.5 °C 1015.5 hPa SSE 6.4 km/h 14.5 km/h 29 % 0.0 mm
15:17 34.2 °C 13.6 °C 1015.5 hPa SE 1.6 km/h 14.5 km/h 29 % 0.0 mm
15:22 34.3 °C 13.7 °C 1015.5 hPa SW 4.8 km/h 14.5 km/h 29 % 0.0 mm
15:32 34.5 °C 12.8 °C 1015.1 hPa SW 9.7 km/h 9.7 km/h 27 % 0.0 mm
15:37 34.1 °C 13.0 °C 1015.1 hPa SW 3.2 km/h 16.1 km/h 28 % 0.0 mm
15:42 34.1 °C 13.0 °C 1015.1 hPa SW 8.0 km/h 16.1 km/h 28 % 0.0 mm
15:47 34.3 °C 12.6 °C 1015.1 hPa SW 12.9 km/h 16.1 km/h 27 % 0.0 mm
15:52 34.1 °C 12.4 °C 1015.1 hPa SSW 9.7 km/h 17.7 km/h 27 % 0.0 mm
15:57 34.0 °C 12.9 °C 1015.1 hPa SW 6.4 km/h 17.7 km/h 28 % 0.0 mm
16:02 34.0 °C 12.9 °C 1015.1 hPa WSW 6.4 km/h 17.7 km/h 28 % 0.0 mm
16:12 34.3 °C 13.2 °C 1014.8 hPa SSE 8.0 km/h 16.1 km/h 28 % 0.0 mm
16:17 34.2 °C 13.1 °C 1014.8 hPa Calm   12.9 km/h 28 % 0.0 mm
16:22 34.5 °C 13.3 °C 1014.8 hPa ESE 4.8 km/h 12.9 km/h 28 % 0.0 mm
16:27 34.7 °C 13.5 °C 1014.8 hPa SW 11.3 km/h 11.3 km/h 28 % 0.0 mm
16:32 34.6 °C 12.9 °C 1014.8 hPa SW 11.3 km/h 11.3 km/h 27 % 0.0 mm
16:37 34.7 °C 13.0 °C 1014.8 hPa SW 11.3 km/h 14.5 km/h 27 % 0.0 mm
16:42 34.6 °C 12.9 °C 1014.4 hPa SSW 11.3 km/h 14.5 km/h 27 % 0.0 mm
16:47 34.5 °C 12.8 °C 1014.4 hPa WSW 9.7 km/h 17.7 km/h 27 % 0.0 mm
16:52 34.6 °C 12.3 °C 1014.4 hPa SSW 1.6 km/h 19.3 km/h 26 % 0.0 mm
16:57 34.4 °C 12.7 °C 1014.4 hPa Calm   17.7 km/h 27 % 0.0 mm
17:02 34.6 °C 12.9 °C 1014.4 hPa WSW 3.2 km/h 17.7 km/h 27 % 0.0 mm
17:07 34.9 °C 13.1 °C 1014.4 hPa SE 4.8 km/h 9.7 km/h 27 % 0.0 mm
17:12 34.9 °C 13.1 °C 1014.4 hPa WSW 3.2 km/h 9.7 km/h 27 % 0.0 mm
17:17 35.2 °C 12.8 °C 1014.4 hPa SE 1.6 km/h 9.7 km/h 26 % 0.0 mm
17:22 35.3 °C 12.3 °C 1014.1 hPa East 4.8 km/h 11.3 km/h 25 % 0.0 mm
17:27 34.9 °C 12.0 °C 1014.1 hPa WSW 4.8 km/h 11.3 km/h 25 % 0.0 mm
17:32 35.1 °C 12.1 °C 1014.1 hPa SW 8.0 km/h 11.3 km/h 25 % 0.0 mm
17:37 35.0 °C 12.0 °C 1014.1 hPa West 6.4 km/h 12.9 km/h 25 % 0.0 mm
17:42 35.1 °C 12.1 °C 1014.1 hPa South 9.7 km/h 12.9 km/h 25 % 0.0 mm
17:47 35.2 °C 12.2 °C 1014.1 hPa SE 6.4 km/h 14.5 km/h 25 % 0.0 mm
17:52 35.3 °C 12.3 °C 1014.1 hPa East 3.2 km/h 14.5 km/h 25 % 0.0 mm
17:57 35.4 °C 12.4 °C 1014.1 hPa SW 3.2 km/h 11.3 km/h 25 % 0.0 mm
18:02 35.6 °C 11.9 °C 1014.1 hPa SSW 3.2 km/h 11.3 km/h 24 % 0.0 mm
18:12 35.5 °C 12.5 °C 1013.8 hPa South 4.8 km/h 9.7 km/h 25 % 0.0 mm
18:17 35.4 °C 12.4 °C 1013.8 hPa West 6.4 km/h 9.7 km/h 25 % 0.0 mm
18:22 35.0 °C 12.0 °C 1013.8 hPa SW 3.2 km/h 9.7 km/h 25 % 0.0 mm
18:32 35.1 °C 12.1 °C 1013.8 hPa Calm   16.1 km/h 25 % 0.0 mm
18:42 35.5 °C 11.8 °C 1013.8 hPa SSW 1.6 km/h 12.9 km/h 24 % 0.0 mm
18:47 35.4 °C 12.4 °C 1013.8 hPa SSW 1.6 km/h 9.7 km/h 25 % 0.0 mm
18:52 35.3 °C 12.3 °C 1013.8 hPa SE 1.6 km/h 9.7 km/h 25 % 0.0 mm
18:57 35.4 °C 12.4 °C 1013.8 hPa Calm   9.7 km/h 25 % 0.0 mm
19:02 35.5 °C 12.5 °C 1013.8 hPa Calm   9.7 km/h 25 % 0.0 mm
19:12 35.1 °C 12.1 °C 1013.8 hPa WSW 8.0 km/h 9.7 km/h 25 % 0.0 mm
19:17 34.8 °C 11.9 °C 1013.8 hPa WSW 3.2 km/h 16.1 km/h 25 % 0.0 mm
19:22 34.7 °C 11.8 °C 1013.8 hPa West 3.2 km/h 16.1 km/h 25 % 0.0 mm
19:32 34.4 °C 11.5 °C 1013.8 hPa WSW 4.8 km/h 8.0 km/h 25 % 0.0 mm
19:37 34.3 °C 11.4 °C 1013.8 hPa SW 4.8 km/h 8.0 km/h 25 % 0.0 mm
19:42 34.2 °C 12.0 °C 1013.8 hPa SW 6.4 km/h 9.7 km/h 26 % 0.0 mm
19:47 34.1 °C 11.9 °C 1013.8 hPa SW 3.2 km/h 11.3 km/h 26 % 0.0 mm
19:57 33.9 °C 11.7 °C 1013.8 hPa WSW 3.2 km/h 8.0 km/h 26 % 0.0 mm
20:02 33.7 °C 12.1 °C 1013.8 hPa WSW 4.8 km/h 8.0 km/h 27 % 0.0 mm
20:07 33.6 °C 12.0 °C 1013.8 hPa WNW 6.4 km/h 8.0 km/h 27 % 0.0 mm
20:12 33.1 °C 11.6 °C 1013.8 hPa West 4.8 km/h 6.4 km/h 27 % 0.0 mm
20:17 32.7 °C 11.3 °C 1013.8 hPa West 6.4 km/h 9.7 km/h 27 % 0.0 mm
20:22 32.4 °C 11.6 °C 1013.8 hPa WNW 1.6 km/h 9.7 km/h 28 % 0.0 mm
20:27 32.1 °C 11.3 °C 1013.8 hPa WNW 3.2 km/h 8.0 km/h 28 % 0.0 mm
20:32 31.6 °C 11.4 °C 1013.8 hPa West 3.2 km/h 8.0 km/h 29 % 0.0 mm
20:37 31.1 °C 11.5 °C 1013.8 hPa West 3.2 km/h 6.4 km/h 30 % 0.0 mm
20:42 30.7 °C 11.6 °C 1013.8 hPa West 1.6 km/h 6.4 km/h 31 % 0.0 mm
20:52 29.8 °C 11.3 °C 1014.1 hPa WNW 1.6 km/h 4.8 km/h 32 % 0.0 mm
20:57 29.2 °C 11.3 °C 1014.1 hPa Calm   3.2 km/h 33 % 0.0 mm
21:02 28.8 °C 11.4 °C 1014.1 hPa Calm   3.2 km/h 34 % 0.0 mm
21:12 28.4 °C 11.5 °C 1014.4 hPa Calm   3.2 km/h 35 % 0.0 mm
21:17 28.3 °C 11.4 °C 1014.4 hPa Calm   1.6 km/h 35 % 0.0 mm
21:22 28.2 °C 11.3 °C 1014.4 hPa Calm   1.6 km/h 35 % 0.0 mm
21:32 28.1 °C 11.6 °C 1014.4 hPa Calm     36 % 0.0 mm
21:42 27.1 °C 11.6 °C 1014.4 hPa Calm     38 % 0.0 mm
21:47 26.7 °C 12.0 °C 1014.4 hPa Calm     40 % 0.0 mm
21:52 26.5 °C 12.2 °C 1014.4 hPa Calm     41 % 0.0 mm
22:02 26.2 °C 11.5 °C 1014.8 hPa Calm   1.6 km/h 40 % 0.0 mm
22:12 25.6 °C 12.1 °C 1014.8 hPa Calm   1.6 km/h 43 % 0.0 mm
22:17 25.2 °C 12.1 °C 1014.8 hPa Calm   1.6 km/h 44 % 0.0 mm
22:22 24.9 °C 11.8 °C 1014.8 hPa Calm   1.6 km/h 44 % 0.0 mm
22:27 24.6 °C 11.9 °C 1014.8 hPa Calm     45 % 0.0 mm
22:32 24.4 °C 11.7 °C 1014.8 hPa Calm     45 % 0.0 mm
22:37 24.4 °C 11.7 °C 1014.8 hPa Calm     45 % 0.0 mm
22:42 24.6 °C 11.9 °C 1014.8 hPa Calm     45 % 0.0 mm
22:47 24.6 °C 11.9 °C 1014.8 hPa Calm     45 % 0.0 mm
22:52 24.4 °C 12.0 °C 1014.8 hPa Calm     46 % 0.0 mm
23:02 23.7 °C 11.7 °C 1015.1 hPa Calm     47 % 0.0 mm
23:12 22.9 °C 11.3 °C 1015.1 hPa Calm     48 % 0.0 mm
23:17 22.9 °C 10.3 °C 1014.8 hPa Calm     45 % 0.0 mm
23:22 23.3 °C 10.7 °C 1015.1 hPa Calm     45 % 0.0 mm
23:27 23.6 °C 10.6 °C 1015.1 hPa Calm     44 % 0.0 mm
23:32 23.3 °C 10.7 °C 1015.1 hPa WNW 3.2 km/h   45 % 0.0 mm
23:37 23.4 °C 10.5 °C 1015.1 hPa WNW 3.2 km/h 4.8 km/h 44 % 0.0 mm
23:42 23.3 °C 10.7 °C 1014.8 hPa WNW 1.6 km/h 4.8 km/h 45 % 0.0 mm
23:47 22.9 °C 10.7 °C 1014.8 hPa Calm   4.8 km/h 46 % 0.0 mm
23:52 22.6 °C 10.7 °C 1014.8 hPa Calm   4.8 km/h 47 % 0.0 mm
23:57 22.3 °C 10.8 °C 1014.8 hPa Calm   3.2 km/h 48 % 0.0 mm
Meteo18
Compliments of Weather Underground - 4 mb

Script developed by  Jim McMurry - jmcmurry@mwt.net Adapted for the template by  Wim van der Kuil - Leuven-Template.eu

You find our weather info also at:

European Weather Network

Weather Underground

Equipment we use:

Weather-station
Davis Vue

Weather-program
Meteohub

Weather-server
Raspberry PI 2 B+

Provider
1 and 1

Davis Vue

Meteohub

Raspberry PI 2 B+

1 and 1